Time;durP1;ratioP1;P1;durP2;ratioP2;P2;SDS_P1;SDS_P2;PMS_P1;PMS_P2;Temp;Humidity;BMP_temperature;BMP_pressure;BME280_temperature;BME280_humidity;BME280_pressure;Samples;Min_cycle;Max_cycle;Signal;HPM_P1;HPM_P2
2022/07/22 00:00:57;;;;;;;;;;;;;;;16.51;91.89;102182.66;5094915;28;19964;-36
2022/07/22 00:03:22;;;;;;;;;;;;;;;16.53;91.87;102174.22;5095504;28;19919;-36
2022/07/22 00:05:47;;;;;;;;;;;;;;;16.54;92.02;102178.59;5094597;28;20292;-36
2022/07/22 00:08:13;;;;;;;;;;;;;;;16.54;91.54;102181.34;5095613;28;20349;-36
2022/07/22 00:10:38;;;;;;;;;;;;;;;16.55;92.03;102177.56;5095185;28;19912;-36
2022/07/22 00:13:03;;;;;;;;;;;;;;;16.56;91.81;102180.03;5094999;28;19919;-36
2022/07/22 00:15:28;;;;;;;;;;;;;;;16.57;91.75;102178.97;5094761;28;20003;-36
2022/07/22 00:17:53;;;;;;;;;;;;;;;16.59;91.70;102184.19;5095518;28;20348;-36
2022/07/22 00:20:19;;;;;;;;;;;;;;;16.57;91.76;102170.78;5094661;28;19912;-36
2022/07/22 00:22:44;;;;;;;;;;;;;;;16.58;92.31;102177.91;5094845;28;19912;-36
2022/07/22 00:25:10;;;;;;;;;;;;;;;16.58;92.00;102171.59;5094672;28;19912;-36
2022/07/22 00:27:35;;;;;;;;;;;;;;;16.57;91.87;102173.50;5094830;28;19912;-36
2022/07/22 00:30:00;;;;;;;;;;;;;;;16.57;91.64;102165.31;5094352;28;19912;-36
2022/07/22 00:32:25;;;;;;;;;;;;;;;16.59;91.87;102173.25;5094095;28;20057;-36
2022/07/22 00:34:51;;;;;;;;;;;;;;;16.58;91.85;102171.59;5094345;28;19912;-36
2022/07/22 00:37:16;;;;;;;;;;;;;;;16.57;91.46;102162.59;5094151;28;19919;-36
2022/07/22 00:39:41;;;;;;;;;;;;;;;16.58;91.77;102166.16;5094455;28;19919;-36
2022/07/22 00:42:06;;;;;;;;;;;;;;;16.57;91.80;102165.31;5094558;28;19912;-36
2022/07/22 00:44:32;;;;;;;;;;;;;;;16.58;91.79;102157.94;5094534;28;20317;-36
2022/07/22 00:46:57;;;;;;;;;;;;;;;16.57;91.93;102159.84;5093981;28;19911;-36
2022/07/22 00:49:22;;;;;;;;;;;;;;;16.56;91.80;102165.56;5094135;28;19930;-36
2022/07/22 00:51:47;;;;;;;;;;;;;;;16.54;91.60;102165.78;5094076;28;19923;-36
2022/07/22 00:54:13;;;;;;;;;;;;;;;16.54;91.75;102163.06;5094990;28;19923;-36
2022/07/22 00:56:39;;;;;;;;;;;;;;;16.54;92.08;102162.22;5093938;28;19912;-36
2022/07/22 00:59:06;;;;;;;;;;;;;;;16.53;92.06;102166.84;5093286;28;19919;-36
2022/07/22 01:01:32;;;;;;;;;;;;;;;16.51;92.00;102163.56;5093979;28;20062;-36
2022/07/22 01:03:57;;;;;;;;;;;;;;;16.54;92.28;102167.69;5094432;28;19912;-36
2022/07/22 01:06:22;;;;;;;;;;;;;;;16.53;92.17;102164.13;5093848;28;19912;-36
2022/07/22 01:08:48;;;;;;;;;;;;;;;16.52;92.37;102156.19;5093567;28;19919;-36
2022/07/22 01:11:15;;;;;;;;;;;;;;;16.52;92.19;102161.66;5094092;28;19912;-36
2022/07/22 01:13:40;;;;;;;;;;;;;;;16.45;91.98;102151.69;5094516;28;19998;-36
2022/07/22 01:16:06;;;;;;;;;;;;;;;16.40;92.51;102154.31;5093970;28;19950;-36
2022/07/22 01:18:32;;;;;;;;;;;;;;;16.37;92.35;102156.66;5094182;28;19923;-36
2022/07/22 01:20:57;;;;;;;;;;;;;;;16.33;92.48;102152.75;5093930;28;19991;-36
2022/07/22 01:23:22;;;;;;;;;;;;;;;16.31;92.31;102146.72;5094176;28;20015;-36
2022/07/22 01:25:48;;;;;;;;;;;;;;;16.28;92.17;102144.44;5093600;28;19922;-36
2022/07/22 01:28:13;;;;;;;;;;;;;;;16.26;92.18;102150.16;5093213;28;20275;-36
2022/07/22 01:30:38;;;;;;;;;;;;;;;16.22;92.56;102149.78;5093261;28;19912;-36
2022/07/22 01:33:03;;;;;;;;;;;;;;;16.21;92.67;102144.56;5093799;28;19914;-36
2022/07/22 01:35:28;;;;;;;;;;;;;;;16.19;92.39;102152.16;5093481;28;20006;-36
2022/07/22 01:37:54;;;;;;;;;;;;;;;16.20;92.76;102143.75;5093239;28;19980;-36
2022/07/22 01:40:19;;;;;;;;;;;;;;;16.22;92.56;102146.22;5093261;28;19998;-36
2022/07/22 01:42:44;;;;;;;;;;;;;;;16.22;92.63;102141.59;5093434;28;19919;-36
2022/07/22 01:45:10;;;;;;;;;;;;;;;16.24;92.85;102144.06;5093640;28;19912;-36
2022/07/22 01:47:35;;;;;;;;;;;;;;;16.25;92.85;102145.75;5093622;28;19912;-36
2022/07/22 01:50:00;;;;;;;;;;;;;;;16.26;92.49;102141.13;5093391;28;19912;-36
2022/07/22 01:52:25;;;;;;;;;;;;;;;16.26;92.73;102136.50;5093625;28;20003;-36
2022/07/22 01:54:51;;;;;;;;;;;;;;;16.29;92.61;102146.09;5093796;28;20329;-36
2022/07/22 01:57:16;;;;;;;;;;;;;;;16.30;92.81;102150.47;5093034;28;20016;-36
2022/07/22 01:59:41;;;;;;;;;;;;;;;16.31;93.01;102147.53;5093096;28;19961;-36
2022/07/22 02:02:06;;;;;;;;;;;;;;;16.32;92.66;102151.09;5093235;28;19912;-36
2022/07/22 02:04:31;;;;;;;;;;;;;;;16.30;92.54;102148.63;5092878;28;19916;-36
2022/07/22 02:06:57;;;;;;;;;;;;;;;16.32;93.03;102146.47;5093496;28;19912;-36
2022/07/22 02:09:22;;;;;;;;;;;;;;;16.32;92.97;102151.09;5093081;28;19912;-36
2022/07/22 02:11:47;;;;;;;;;;;;;;;16.32;92.92;102145.63;5093205;28;19916;-36
2022/07/22 02:14:12;;;;;;;;;;;;;;;16.32;92.85;102146.47;5093138;28;19995;-36
2022/07/22 02:16:37;;;;;;;;;;;;;;;16.34;92.68;102140.75;5093410;28;20015;-36
2022/07/22 02:19:03;;;;;;;;;;;;;;;16.33;92.63;102141.81;5093721;28;20002;-36
2022/07/22 02:21:28;;;;;;;;;;;;;;;16.34;92.56;102146.22;5094902;28;19919;-36
2022/07/22 02:23:53;;;;;;;;;;;;;;;16.33;92.79;102144.56;5096658;28;19919;-36
2022/07/22 02:26:19;;;;;;;;;;;;;;;16.32;92.94;102140.19;5097148;28;19912;-36
2022/07/22 02:28:44;;;;;;;;;;;;;;;16.31;92.87;102143.97;5097359;28;19912;-36
2022/07/22 02:31:09;;;;;;;;;;;;;;;16.30;92.67;102136.84;5097225;28;20364;-36
2022/07/22 02:33:34;;;;;;;;;;;;;;;16.31;93.06;102133.88;5096444;28;20390;-36
2022/07/22 02:35:59;;;;;;;;;;;;;;;16.31;92.46;102135.78;5095376;28;19919;-36
2022/07/22 02:38:25;;;;;;;;;;;;;;;16.30;92.94;102134.09;5096636;28;19928;-36
2022/07/22 02:40:50;;;;;;;;;;;;;;;16.30;92.69;102132.22;5096323;28;19912;-36
2022/07/22 02:43:15;;;;;;;;;;;;;;;16.32;92.99;102137.44;5097352;28;19944;-36
2022/07/22 02:45:40;;;;;;;;;;;;;;;16.32;92.43;102132.00;5097088;28;20028;-36
2022/07/22 02:48:06;;;;;;;;;;;;;;;16.34;92.66;102138.03;5097062;28;20010;-36
2022/07/22 02:50:32;;;;;;;;;;;;;;;16.33;92.32;102137.19;5096423;28;20398;-36
2022/07/22 02:52:57;;;;;;;;;;;;;;;16.34;92.25;102136.13;5096049;28;19990;-36
2022/07/22 02:55:23;;;;;;;;;;;;;;;16.34;92.30;102132.56;5096029;28;19921;-36
2022/07/22 02:57:48;;;;;;;;;;;;;;;16.34;92.52;102127.94;5096309;28;19916;-36
2022/07/22 03:00:14;;;;;;;;;;;;;;;16.32;92.71;102134.72;5096656;28;19912;-36
2022/07/22 03:02:39;;;;;;;;;;;;;;;16.32;92.50;102132.81;5096153;28;20378;-36
2022/07/22 03:05:05;;;;;;;;;;;;;;;16.30;92.87;102137.69;5096116;28;19934;-36
2022/07/22 03:07:30;;;;;;;;;;;;;;;16.31;92.81;102133.88;5096839;28;19912;-36
2022/07/22 03:09:56;;;;;;;;;;;;;;;16.33;92.83;102131.75;5096050;28;20287;-36
2022/07/22 03:12:21;;;;;;;;;;;;;;;16.32;92.64;102134.72;5095758;28;19912;-36
2022/07/22 03:14:46;;;;;;;;;;;;;;;16.33;92.81;102133.63;5095926;28;19912;-36
2022/07/22 03:17:11;;;;;;;;;;;;;;;16.33;92.41;102120.81;5096185;28;19916;-36
2022/07/22 03:19:37;;;;;;;;;;;;;;;16.33;92.47;102125.44;5096470;28;19957;-36
2022/07/22 03:22:02;;;;;;;;;;;;;;;16.32;92.84;102132.00;5096347;28;20007;-36
2022/07/22 03:24:27;;;;;;;;;;;;;;;16.31;93.30;102122.97;5096031;28;20348;-35
2022/07/22 03:26:52;;;;;;;;;;;;;;;16.29;93.17;102116.06;5096258;28;19912;-35
2022/07/22 03:29:18;;;;;;;;;;;;;;;16.28;93.03;102120.72;5095599;28;19974;-35
2022/07/22 03:31:43;;;;;;;;;;;;;;;16.27;93.07;102115.50;5095338;28;20004;-35
2022/07/22 03:34:08;;;;;;;;;;;;;;;16.26;92.84;102113.84;5095615;28;19955;-35
2022/07/22 03:36:33;;;;;;;;;;;;;;;16.25;93.29;102117.63;5095346;28;19973;-35
2022/07/22 03:38:59;;;;;;;;;;;;;;;16.23;93.04;102113.22;5095183;28;20016;-35
2022/07/22 03:41:24;;;;;;;;;;;;;;;16.23;92.85;102110.50;5095537;28;19912;-35
2022/07/22 03:43:49;;;;;;;;;;;;;;;16.22;93.32;102114.31;5095638;28;19923;-36
2022/07/22 03:46:15;;;;;;;;;;;;;;;16.21;92.64;102109.91;5095964;28;20045;-35
2022/07/22 03:48:40;;;;;;;;;;;;;;;16.22;92.81;102119.75;5095594;28;20323;-36
2022/07/22 03:51:05;;;;;;;;;;;;;;;16.23;93.03;102113.22;5095564;28;19916;-35
2022/07/22 03:53:32;;;;;;;;;;;;;;;16.25;92.81;102123.06;5095521;28;19938;-35
2022/07/22 03:55:57;;;;;;;;;;;;;;;16.22;93.23;102125.22;5095985;28;19912;-36
2022/07/22 03:58:23;;;;;;;;;;;;;;;16.23;92.78;102124.16;5095532;28;19912;-36
2022/07/22 04:00:48;;;;;;;;;;;;;;;16.23;93.14;102132.34;5095281;28;19923;-35
2022/07/22 04:03:13;;;;;;;;;;;;;;;16.23;93.24;102126.88;5095895;28;19912;-35
2022/07/22 04:05:38;;;;;;;;;;;;;;;16.23;93.31;102126.88;5095248;28;19973;-35
2022/07/22 04:08:04;;;;;;;;;;;;;;;16.23;92.81;102126.06;5094255;28;19935;-36
2022/07/22 04:10:29;;;;;;;;;;;;;;;16.23;93.46;102121.41;5094585;28;20357;-36
2022/07/22 04:12:54;;;;;;;;;;;;;;;16.25;93.11;102134.84;5094840;28;19953;-36
2022/07/22 04:15:20;;;;;;;;;;;;;;;16.26;93.30;102135.69;5094811;28;20292;-35
2022/07/22 04:17:45;;;;;;;;;;;;;;;16.28;92.85;102128.06;5094450;28;19965;-36
2022/07/22 04:20:10;;;;;;;;;;;;;;;16.29;93.31;102132.44;5094632;28;19931;-36
2022/07/22 04:22:35;;;;;;;;;;;;;;;16.32;92.95;102127.34;5094971;28;19912;-36
2022/07/22 04:25:00;;;;;;;;;;;;;;;16.33;92.83;102130.91;5094524;28;19943;-36
2022/07/22 04:27:26;;;;;;;;;;;;;;;16.36;93.32;102128.53;5094658;28;20002;-36
2022/07/22 04:29:51;;;;;;;;;;;;;;;16.38;92.68;102128.28;5094768;28;20015;-37
2022/07/22 04:32:16;;;;;;;;;;;;;;;16.39;93.01;102129.94;5094829;28;19966;-37
2022/07/22 04:34:41;;;;;;;;;;;;;;;16.41;93.52;102125.09;5094486;28;19916;-36
2022/07/22 04:37:07;;;;;;;;;;;;;;;16.42;92.85;102124.03;5094090;28;19916;-37
2022/07/22 04:39:32;;;;;;;;;;;;;;;16.44;93.24;102125.44;5093912;28;19912;-36
2022/07/22 04:41:57;;;;;;;;;;;;;;;16.44;93.47;102121.88;5094288;28;19915;-36
2022/07/22 04:44:22;;;;;;;;;;;;;;;16.44;93.62;102124.59;5093695;28;19966;-36
2022/07/22 04:46:48;;;;;;;;;;;;;;;16.44;93.44;102122.69;5094298;28;19915;-36
2022/07/22 04:49:13;;;;;;;;;;;;;;;16.48;93.24;102123.88;5094174;28;19912;-36
2022/07/22 04:51:38;;;;;;;;;;;;;;;16.52;93.13;102118.78;5093800;28;19919;-37
2022/07/22 04:54:03;;;;;;;;;;;;;;;16.56;93.66;102119.16;5094426;28;19923;-37
2022/07/22 04:56:28;;;;;;;;;;;;;;;16.53;93.49;102114.97;5094835;28;19912;-36
2022/07/22 04:58:54;;;;;;;;;;;;;;;16.55;93.53;102120.22;5093934;28;19912;-36
2022/07/22 05:01:19;;;;;;;;;;;;;;;16.56;93.27;102109.06;5094473;28;19912;-36
2022/07/22 05:03:44;;;;;;;;;;;;;;;16.60;93.20;102114.88;5093661;28;19955;-37
2022/07/22 05:06:09;;;;;;;;;;;;;;;16.64;93.26;102111.41;5093849;28;19954;-37
2022/07/22 05:08:35;;;;;;;;;;;;;;;16.67;92.79;102110.91;5093869;28;19916;-36
2022/07/22 05:11:00;;;;;;;;;;;;;;;16.71;93.02;102114.00;5094253;28;19912;-37
2022/07/22 05:13:25;;;;;;;;;;;;;;;16.77;92.79;102109.50;5093970;28;19912;-36
2022/07/22 05:15:51;;;;;;;;;;;;;;;16.80;93.13;102115.31;5093749;28;20437;-36
2022/07/22 05:18:16;;;;;;;;;;;;;;;16.84;93.02;102112.94;5093926;28;19916;-37
2022/07/22 05:20:41;;;;;;;;;;;;;;;16.88;92.66;102108.63;5093709;28;19916;-36
2022/07/22 05:23:07;;;;;;;;;;;;;;;16.91;92.57;102106.25;5093503;28;19919;-36
2022/07/22 05:25:32;;;;;;;;;;;;;;;16.95;92.71;102107.44;5093305;28;20022;-36
2022/07/22 05:27:57;;;;;;;;;;;;;;;16.98;92.56;102106.97;5094128;28;19963;-36
2022/07/22 05:30:22;;;;;;;;;;;;;;;17.01;92.54;102111.09;5092885;28;19955;-36
2022/07/22 05:32:48;;;;;;;;;;;;;;;17.03;92.33;102116.31;5093589;28;19920;-37
2022/07/22 05:35:13;;;;;;;;;;;;;;;17.04;92.25;102115.25;5093417;28;19920;-37
2022/07/22 05:37:38;;;;;;;;;;;;;;;17.04;92.02;102113.34;5093613;28;19912;-36
2022/07/22 05:40:04;;;;;;;;;;;;;;;17.09;92.04;102115.34;5093359;28;20391;-36
2022/07/22 05:42:29;;;;;;;;;;;;;;;17.12;92.05;102115.66;5093536;28;19957;-36
2022/07/22 05:44:54;;;;;;;;;;;;;;;17.16;92.16;102116.03;5093757;28;20002;-37
2022/07/22 05:47:19;;;;;;;;;;;;;;;17.20;91.58;102114.47;5093317;28;20019;-36
2022/07/22 05:49:45;;;;;;;;;;;;;;;17.22;91.84;102113.13;5093506;28;20455;-36
2022/07/22 05:52:10;;;;;;;;;;;;;;;17.25;91.85;102115.38;5093576;28;20376;-36
2022/07/22 05:54:35;;;;;;;;;;;;;;;17.31;91.89;102120.94;5093762;28;19947;-36
2022/07/22 05:57:00;;;;;;;;;;;;;;;17.34;91.57;102120.47;5096245;28;19996;-36
2022/07/22 05:59:25;;;;;;;;;;;;;;;17.38;91.64;102124.38;5097286;28;19920;-36
2022/07/22 06:01:51;;;;;;;;;;;;;;;17.44;91.18;102123.38;5097414;28;19993;-36
2022/07/22 06:04:17;;;;;;;;;;;;;;;17.44;91.45;102116.00;5097266;28;19916;-36
2022/07/22 06:06:42;;;;;;;;;;;;;;;17.48;91.25;102111.72;5097606;28;19912;-36
2022/07/22 06:09:07;;;;;;;;;;;;;;;17.55;91.32;102108.81;5097472;28;19912;-36
2022/07/22 06:11:32;;;;;;;;;;;;;;;17.60;91.21;102108.91;5097933;28;19959;-36
2022/07/22 06:13:57;;;;;;;;;;;;;;;17.66;90.93;102118.84;5097113;28;19919;-36
2022/07/22 06:16:23;;;;;;;;;;;;;;;17.71;90.87;102118.97;5096991;28;19912;-36
2022/07/22 06:18:48;;;;;;;;;;;;;;;17.79;90.72;102119.63;5096838;28;20011;-36
2022/07/22 06:21:13;;;;;;;;;;;;;;;17.85;90.38;102116.72;5096959;28;19912;-36
2022/07/22 06:23:38;;;;;;;;;;;;;;;17.93;89.98;102121.78;5095571;28;19941;-36
2022/07/22 06:26:04;;;;;;;;;;;;;;;18.02;90.05;102120.31;5097485;28;20028;-36
2022/07/22 06:28:29;;;;;;;;;;;;;;;18.10;89.10;102112.72;5096650;28;20106;-36
2022/07/22 06:30:54;;;;;;;;;;;;;;;18.12;89.29;102108.69;5096528;28;19911;-36
2022/07/22 06:33:19;;;;;;;;;;;;;;;18.13;89.18;102113.06;5096482;28;20000;-36
2022/07/22 06:35:44;;;;;;;;;;;;;;;18.14;89.04;102111.97;5096725;28;19919;-35
2022/07/22 06:38:10;;;;;;;;;;;;;;;18.18;88.95;102120.53;5096596;28;19912;-36
2022/07/22 06:40:35;;;;;;;;;;;;;;;18.21;88.77;102109.09;5096780;28;19919;-36
2022/07/22 06:43:01;;;;;;;;;;;;;;;18.23;87.24;102115.13;5097732;28;20051;-36
2022/07/22 06:45:26;;;;;;;;;;;;;;;18.20;87.53;102112.88;5096493;28;19999;-36
2022/07/22 06:47:52;;;;;;;;;;;;;;;18.23;87.75;102115.97;5096710;28;20249;-36
2022/07/22 06:50:17;;;;;;;;;;;;;;;18.30;87.98;102110.31;5096411;28;19912;-36
2022/07/22 06:52:43;;;;;;;;;;;;;;;18.30;86.93;102109.47;5096809;28;19912;-36
2022/07/22 06:55:09;;;;;;;;;;;;;;;18.33;87.48;102111.72;5095127;28;20284;-36
2022/07/22 06:57:34;;;;;;;;;;;;;;;18.26;84.84;102110.00;5095398;28;19912;-36
2022/07/22 06:59:59;;;;;;;;;;;;;;;18.31;86.92;102119.38;5094799;28;20381;-36
2022/07/22 07:02:25;;;;;;;;;;;;;;;18.44;86.84;102118.97;5095495;28;19912;-36
2022/07/22 07:04:50;;;;;;;;;;;;;;;18.48;84.76;102115.47;5093564;28;20353;-36
2022/07/22 07:07:15;;;;;;;;;;;;;;;18.43;84.24;102122.81;5094529;28;19912;-36
2022/07/22 07:09:40;;;;;;;;;;;;;;;18.45;84.29;102115.19;5094765;28;19912;-36
2022/07/22 07:12:06;;;;;;;;;;;;;;;18.38;83.03;102120.81;5095455;28;19912;-37
2022/07/22 07:14:31;;;;;;;;;;;;;;;18.36;83.14;102112.03;5094586;28;20016;-36
2022/07/22 07:16:56;;;;;;;;;;;;;;;18.32;82.71;102115.53;5094838;28;20007;-36
2022/07/22 07:19:21;;;;;;;;;;;;;;;18.35;83.98;102104.06;5094426;28;19945;-36
2022/07/22 07:21:47;;;;;;;;;;;;;;;18.33;82.51;102106.22;5095171;28;20406;-36
2022/07/22 07:24:12;;;;;;;;;;;;;;;18.38;82.17;102106.31;5094889;28;19916;-36
2022/07/22 07:26:37;;;;;;;;;;;;;;;18.48;82.96;102099.06;5094892;28;19961;-36
2022/07/22 07:29:02;;;;;;;;;;;;;;;18.61;81.96;102097.84;5094536;28;19911;-36
2022/07/22 07:31:28;;;;;;;;;;;;;;;18.65;79.13;102093.53;5094517;28;19920;-36
2022/07/22 07:33:54;;;;;;;;;;;;;;;18.73;78.53;102098.56;5094598;28;19938;-36
2022/07/22 07:36:19;;;;;;;;;;;;;;;18.83;77.62;102092.38;5094816;28;20398;-36
2022/07/22 07:38:44;;;;;;;;;;;;;;;18.93;79.54;102094.41;5094908;28;19919;-36
2022/07/22 07:41:09;;;;;;;;;;;;;;;18.98;79.15;102095.34;5093876;28;19918;-36
2022/07/22 07:43:35;;;;;;;;;;;;;;;19.05;77.83;102097.88;5094405;28;19934;-36
2022/07/22 07:46:00;;;;;;;;;;;;;;;19.09;78.70;102096.28;5094350;28;19919;-36
2022/07/22 07:48:25;;;;;;;;;;;;;;;19.15;78.80;102099.88;5094330;28;19912;-36
2022/07/22 07:50:51;;;;;;;;;;;;;;;19.24;77.44;102092.84;5094619;28;20369;-36
2022/07/22 07:53:16;;;;;;;;;;;;;;;19.22;76.58;102103.25;5056658;28;1080468;-36
2022/07/22 07:55:41;;;;;;;;;;;;;;;19.23;78.08;102100.25;5095959;28;19943;-36
2022/07/22 07:58:07;;;;;;;;;;;;;;;19.24;79.22;102101.91;5095156;28;19963;-36
2022/07/22 08:00:33;;;;;;;;;;;;;;;19.27;75.38;102090.41;5094937;28;19919;-37
2022/07/22 08:02:58;;;;;;;;;;;;;;;19.34;75.11;102095.69;5095313;28;19950;-36
2022/07/22 08:05:24;;;;;;;;;;;;;;;19.40;75.68;102104.81;5095138;28;20321;-36
2022/07/22 08:07:49;;;;;;;;;;;;;;;19.54;76.58;102100.53;5095566;28;19959;-36
2022/07/22 08:10:14;;;;;;;;;;;;;;;19.54;73.76;102093.13;5094713;28;19945;-36
2022/07/22 08:12:40;;;;;;;;;;;;;;;19.49;72.82;102084.03;5095246;28;19912;-36
2022/07/22 08:15:05;;;;;;;;;;;;;;;19.53;73.00;102096.97;5094949;28;20352;-36
2022/07/22 08:17:30;;;;;;;;;;;;;;;19.58;74.30;102096.19;5095597;28;19912;-36
2022/07/22 08:19:56;;;;;;;;;;;;;;;19.55;73.15;102091.22;5093743;28;19912;-37
2022/07/22 08:22:21;;;;;;;;;;;;;;;19.51;71.38;102095.56;5095437;28;19915;-36
2022/07/22 08:24:46;;;;;;;;;;;;;;;19.41;71.00;102090.00;5095292;28;20347;-37
2022/07/22 08:27:11;;;;;;;;;;;;;;;19.31;70.60;102090.72;5093939;28;19939;-37
2022/07/22 08:29:36;;;;;;;;;;;;;;;19.27;70.97;102093.16;5094840;28;20016;-35
2022/07/22 08:32:02;;;;;;;;;;;;;;;19.35;70.89;102102.00;5095405;28;20022;-36
2022/07/22 08:34:27;;;;;;;;;;;;;;;19.47;67.70;102089.78;5094620;28;19951;-36
2022/07/22 08:36:52;;;;;;;;;;;;;;;19.66;70.25;102086.66;5094393;28;19977;-36
2022/07/22 08:39:17;;;;;;;;;;;;;;;19.90;70.22;102085.22;5095084;28;19912;-35
2022/07/22 08:41:43;;;;;;;;;;;;;;;20.17;70.68;102079.66;5093454;28;19912;-35
2022/07/22 08:44:09;;;;;;;;;;;;;;;20.14;68.87;102074.66;5094363;28;19997;-36
2022/07/22 08:46:34;;;;;;;;;;;;;;;20.06;70.64;102075.19;5094475;28;19990;-36
2022/07/22 08:49:01;;;;;;;;;;;;;;;19.95;68.55;102076.19;5094641;28;20348;-35
2022/07/22 08:51:26;;;;;;;;;;;;;;;19.89;69.38;102069.84;5094771;28;19912;-36
2022/07/22 08:53:52;;;;;;;;;;;;;;;19.89;68.81;102069.03;5094013;28;19920;-36
2022/07/22 08:56:17;;;;;;;;;;;;;;;19.83;69.28;102070.91;5093878;28;19916;-35
2022/07/22 08:58:42;;;;;;;;;;;;;;;19.82;68.61;102069.25;5094041;28;19958;-36
2022/07/22 09:01:09;;;;;;;;;;;;;;;19.85;69.96;102079.69;5094220;28;19961;-36
2022/07/22 09:03:42;;;;;;;;;;;;;;;19.77;67.69;102061.81;5093980;28;19912;-36
2022/07/22 09:06:08;;;;;;;;;;;;;;;19.76;69.59;102073.88;5094282;28;19951;-35
2022/07/22 09:08:49;;;;;;;;;;;;;;;19.74;69.03;102081.53;5092972;28;19977;-37
2022/07/22 09:11:15;;;;;;;;;;;;;;;19.78;70.35;102079.94;5094210;28;20345;-35
2022/07/22 09:13:42;;;;;;;;;;;;;;;19.77;69.46;102089.25;5094481;28;19912;-37
2022/07/22 09:16:07;;;;;;;;;;;;;;;19.76;68.87;102086.75;5093474;28;20292;-37
2022/07/22 09:18:49;;;;;;;;;;;;;;;19.75;69.65;102090.59;5093828;28;19927;-35
2022/07/22 09:21:14;;;;;;;;;;;;;;;19.82;67.26;102074.75;5093774;28;19912;-36
2022/07/22 09:23:41;;;;;;;;;;;;;;;20.00;69.41;102073.47;5094000;28;19980;-37
2022/07/22 09:26:06;;;;;;;;;;;;;;;20.14;68.43;102074.66;5093372;28;20388;-37
2022/07/22 09:28:31;;;;;;;;;;;;;;;20.16;66.44;102072.50;5092353;28;19916;-36
2022/07/22 09:30:57;;;;;;;;;;;;;;;20.16;67.96;102064.25;5093477;28;19911;-35
2022/07/22 09:33:22;;;;;;;;;;;;;;;20.16;65.30;102071.69;5093870;28;19912;-36
2022/07/22 09:35:48;;;;;;;;;;;;;;;20.16;65.17;102069.75;5093816;28;19974;-36
2022/07/22 09:38:14;;;;;;;;;;;;;;;20.15;65.25;102073.56;5093503;28;20264;-36
2022/07/22 09:40:41;;;;;;;;;;;;;;;20.11;67.80;102069.72;5093266;28;20366;-35
2022/07/22 09:43:11;;;;;;;;;;;;;;;20.10;67.89;102064.47;5094196;28;20233;-36
2022/07/22 09:45:43;;;;;;;;;;;;;;;20.08;65.83;102059.25;5093174;28;19919;-36
2022/07/22 09:48:08;;;;;;;;;;;;;;;20.18;67.56;102056.56;5093801;28;20008;-36
2022/07/22 09:50:34;;;;;;;;;;;;;;;20.23;60.81;102045.63;5094011;28;19970;-36
2022/07/22 09:53:00;;;;;;;;;;;;;;;20.27;62.56;102046.75;5093982;28;20006;-36
2022/07/22 09:55:26;;;;;;;;;;;;;;;20.46;64.27;102051.78;5094131;28;19997;-36
2022/07/22 09:57:52;;;;;;;;;;;;;;;20.52;65.04;102054.31;5093645;28;20125;-37
2022/07/22 10:00:21;;;;;;;;;;;;;;;20.73;64.73;102055.19;5093324;28;19931;-35
2022/07/22 10:02:49;;;;;;;;;;;;;;;20.99;64.37;102049.78;5094072;28;19912;-35
2022/07/22 10:05:14;;;;;;;;;;;;;;;21.32;65.16;102042.97;5093519;28;19912;-36
2022/07/22 10:07:40;;;;;;;;;;;;;;;21.63;61.55;102057.56;5092447;28;20036;-36
2022/07/22 10:10:06;;;;;;;;;;;;;;;21.76;63.20;102050.66;5093148;28;20349;-36
2022/07/22 10:12:33;;;;;;;;;;;;;;;21.92;60.51;102048.72;5093979;28;19916;-36
2022/07/22 10:14:59;;;;;;;;;;;;;;;22.07;58.75;102045.94;5093275;28;19919;-36
2022/07/22 10:17:24;;;;;;;;;;;;;;;22.13;61.54;102044.03;5093916;28;19912;-36
2022/07/22 10:19:49;;;;;;;;;;;;;;;22.36;58.92;102055.25;5093008;28;20301;-36
2022/07/22 10:22:49;;;;;;;;;;;;;;;22.59;60.70;102052.94;5093288;28;19963;-36
2022/07/22 10:25:15;;;;;;;;;;;;;;;22.47;56.55;102052.44;5092854;28;19975;-36
2022/07/22 10:27:43;;;;;;;;;;;;;;;22.33;60.25;102058.56;5092888;28;20019;-36
2022/07/22 10:30:09;;;;;;;;;;;;;;;22.30;60.53;102063.78;5093393;28;19912;-36
2022/07/22 10:32:34;;;;;;;;;;;;;;;22.25;62.13;102050.88;5093580;28;19919;-36
2022/07/22 10:35:03;;;;;;;;;;;;;;;22.08;57.14;102044.84;5091854;28;20360;-36
2022/07/22 10:37:34;;;;;;;;;;;;;;;22.00;57.99;102059.16;5093305;28;19912;-36
2022/07/22 10:40:26;;;;;;;;;;;;;;;21.96;60.70;102050.66;5092851;28;19912;-36
2022/07/22 10:42:57;;;;;;;;;;;;;;;21.92;61.71;102062.50;5091334;28;19919;-36
2022/07/22 10:45:45;;;;;;;;;;;;;;;21.89;62.52;102066.63;5097430;28;20324;-36
2022/07/22 10:48:11;;;;;;;;;;;;;;;21.78;60.27;102065.00;5096635;28;20078;-36
2022/07/22 10:50:43;;;;;;;;;;;;;;;21.68;63.22;102060.31;5096529;28;19912;-36
2022/07/22 10:53:12;;;;;;;;;;;;;;;21.54;61.67;102056.47;5096258;28;19973;-36
2022/07/22 10:55:56;;;;;;;;;;;;;;;21.29;58.92;102049.81;5097289;28;19984;-36
2022/07/22 10:58:33;;;;;;;;;;;;;;;21.12;57.19;102045.66;5096692;28;19916;-36
2022/07/22 11:00:59;;;;;;;;;;;;;;;21.14;56.64;102040.75;5096481;28;20038;-36
2022/07/22 11:03:25;;;;;;;;;;;;;;;21.29;58.90;102036.06;5097194;28;20332;-36
2022/07/22 11:05:50;;;;;;;;;;;;;;;21.65;59.86;102035.25;5096165;28;19912;-36
2022/07/22 11:08:15;;;;;;;;;;;;;;;21.95;60.80;102031.63;5096287;28;20015;-36
2022/07/22 11:10:46;;;;;;;;;;;;;;;22.14;60.04;102026.38;5095888;28;19912;-36
2022/07/22 11:13:12;;;;;;;;;;;;;;;22.23;60.11;102022.78;5095845;28;20356;-36
2022/07/22 11:15:37;;;;;;;;;;;;;;;22.29;58.02;102018.88;5096608;28;20008;-36
2022/07/22 11:18:02;;;;;;;;;;;;;;;22.45;58.77;102027.09;5096410;28;19915;-36
2022/07/22 11:20:29;;;;;;;;;;;;;;;22.51;58.74;102020.47;5096009;28;19911;-36
2022/07/22 11:22:54;;;;;;;;;;;;;;;22.51;58.65;102031.50;5095675;28;19912;-36
2022/07/22 11:25:25;;;;;;;;;;;;;;;22.40;56.11;102019.69;5096451;28;19918;-36
2022/07/22 11:27:52;;;;;;;;;;;;;;;22.24;57.57;102021.66;5096424;28;20105;-36
2022/07/22 11:30:17;;;;;;;;;;;;;;;22.14;58.41;102021.69;5095856;28;20284;-36
2022/07/22 11:32:43;;;;;;;;;;;;;;;22.10;59.59;102021.41;5095553;28;19949;-36
2022/07/22 11:35:11;;;;;;;;;;;;;;;22.05;58.88;102021.41;5095688;28;20321;-36
2022/07/22 11:37:37;;;;;;;;;;;;;;;21.95;56.13;102018.69;5095887;28;19915;-36
2022/07/22 11:40:06;;;;;;;;;;;;;;;22.04;58.18;102010.69;5096121;28;20411;-36
2022/07/22 11:42:32;;;;;;;;;;;;;;;22.21;56.60;102010.41;5096479;28;20299;-36
2022/07/22 11:44:57;;;;;;;;;;;;;;;22.42;56.45;101995.41;5095357;28;19912;-35
2022/07/22 11:47:22;;;;;;;;;;;;;;;22.73;57.75;102000.75;5095784;28;19966;-35
2022/07/22 11:49:48;;;;;;;;;;;;;;;23.04;52.17;101996.72;5095425;28;19912;-35
2022/07/22 11:52:13;;;;;;;;;;;;;;;23.29;54.15;101983.84;5095697;28;19972;-36
2022/07/22 11:54:40;;;;;;;;;;;;;;;23.50;53.54;101979.78;5094894;28;19916;-36
2022/07/22 11:57:05;;;;;;;;;;;;;;;23.77;54.61;101971.00;5095637;28;19919;-36
2022/07/22 11:59:30;;;;;;;;;;;;;;;23.77;51.07;101967.41;5095152;28;19912;-36
2022/07/22 12:01:56;;;;;;;;;;;;;;;23.61;49.99;101959.22;5095729;28;19965;-36
2022/07/22 12:04:25;;;;;;;;;;;;;;;23.10;50.76;101961.66;5095026;28;19916;-36
2022/07/22 12:06:53;;;;;;;;;;;;;;;22.98;50.62;101963.94;5095052;28;20324;-36
2022/07/22 12:09:18;;;;;;;;;;;;;;;22.98;52.04;101953.72;5094765;28;19962;-36
2022/07/22 12:11:45;;;;;;;;;;;;;;;22.83;52.19;101965.66;5095099;28;19939;-37
2022/07/22 12:14:10;;;;;;;;;;;;;;;22.83;53.72;101956.56;5095005;28;19912;-36
2022/07/22 12:16:36;;;;;;;;;;;;;;;22.89;54.67;101955.47;5095210;28;19919;-37
2022/07/22 12:19:03;;;;;;;;;;;;;;;23.09;54.24;101948.97;5094846;28;19976;-37
2022/07/22 12:21:29;;;;;;;;;;;;;;;23.18;53.71;101952.78;5094679;28;19919;-36
2022/07/22 12:24:01;;;;;;;;;;;;;;;23.34;55.17;101950.69;5095071;28;20241;-36
2022/07/22 12:26:41;;;;;;;;;;;;;;;23.59;54.86;101941.31;5095368;28;19912;-36
2022/07/22 12:29:12;;;;;;;;;;;;;;;23.51;52.55;101947.47;5094452;28;19919;-37